sensor_id;sensor_type;location;lat;lon;timestamp;P1;durP1;ratioP1;P2;durP2;ratioP2
26484;SDS011;18083;50.560;7.262;2023-08-12T00:02:00;21.77;;;16.40;;
26484;SDS011;18083;50.560;7.262;2023-08-12T00:04:27;20.17;;;14.53;;
26484;SDS011;18083;50.560;7.262;2023-08-12T00:06:55;22.15;;;17.65;;
26484;SDS011;18083;50.560;7.262;2023-08-12T00:09:22;23.07;;;16.52;;
26484;SDS011;18083;50.560;7.262;2023-08-12T00:11:49;22.40;;;18.00;;
26484;SDS011;18083;50.560;7.262;2023-08-12T00:14:17;30.12;;;19.10;;
26484;SDS011;18083;50.560;7.262;2023-08-12T00:16:44;21.05;;;18.82;;
26484;SDS011;18083;50.560;7.262;2023-08-12T00:19:11;25.62;;;19.73;;
26484;SDS011;18083;50.560;7.262;2023-08-12T00:21:39;26.87;;;19.40;;
26484;SDS011;18083;50.560;7.262;2023-08-12T00:24:07;30.12;;;20.90;;
26484;SDS011;18083;50.560;7.262;2023-08-12T00:26:34;24.12;;;20.70;;
26484;SDS011;18083;50.560;7.262;2023-08-12T00:29:01;29.05;;;20.02;;
26484;SDS011;18083;50.560;7.262;2023-08-12T00:31:29;29.02;;;19.82;;
26484;SDS011;18083;50.560;7.262;2023-08-12T00:33:56;30.05;;;20.72;;
26484;SDS011;18083;50.560;7.262;2023-08-12T00:36:23;29.40;;;20.75;;
26484;SDS011;18083;50.560;7.262;2023-08-12T00:38:50;27.80;;;20.60;;
26484;SDS011;18083;50.560;7.262;2023-08-12T00:41:18;31.62;;;22.15;;
26484;SDS011;18083;50.560;7.262;2023-08-12T00:43:45;26.33;;;20.32;;
26484;SDS011;18083;50.560;7.262;2023-08-12T00:46:13;23.80;;;19.20;;
26484;SDS011;18083;50.560;7.262;2023-08-12T00:48:40;23.32;;;18.30;;
26484;SDS011;18083;50.560;7.262;2023-08-12T00:51:07;26.15;;;20.20;;
26484;SDS011;18083;50.560;7.262;2023-08-12T00:53:35;27.17;;;21.23;;
26484;SDS011;18083;50.560;7.262;2023-08-12T00:56:03;24.67;;;21.25;;
26484;SDS011;18083;50.560;7.262;2023-08-12T00:58:30;26.75;;;19.62;;
26484;SDS011;18083;50.560;7.262;2023-08-12T01:00:58;28.02;;;20.45;;
26484;SDS011;18083;50.560;7.262;2023-08-12T01:03:25;25.20;;;19.20;;
26484;SDS011;18083;50.560;7.262;2023-08-12T01:05:52;32.13;;;20.48;;
26484;SDS011;18083;50.560;7.262;2023-08-12T01:08:20;20.80;;;18.05;;
26484;SDS011;18083;50.560;7.262;2023-08-12T01:10:49;22.77;;;18.62;;
26484;SDS011;18083;50.560;7.262;2023-08-12T01:16:01;18.48;;;16.48;;
26484;SDS011;18083;50.560;7.262;2023-08-12T01:18:30;24.70;;;20.27;;
26484;SDS011;18083;50.560;7.262;2023-08-12T01:20:58;24.85;;;21.25;;
26484;SDS011;18083;50.560;7.262;2023-08-12T01:23:26;25.05;;;20.60;;
26484;SDS011;18083;50.560;7.262;2023-08-12T01:25:54;23.62;;;18.65;;
26484;SDS011;18083;50.560;7.262;2023-08-12T01:28:21;35.63;;;24.65;;
26484;SDS011;18083;50.560;7.262;2023-08-12T01:30:51;29.82;;;23.47;;
26484;SDS011;18083;50.560;7.262;2023-08-12T01:35:47;25.60;;;21.95;;
26484;SDS011;18083;50.560;7.262;2023-08-12T01:38:15;23.80;;;20.82;;
26484;SDS011;18083;50.560;7.262;2023-08-12T01:40:43;27.95;;;20.82;;
26484;SDS011;18083;50.560;7.262;2023-08-12T01:43:11;22.58;;;19.85;;
26484;SDS011;18083;50.560;7.262;2023-08-12T01:45:38;25.65;;;18.90;;
26484;SDS011;18083;50.560;7.262;2023-08-12T01:48:07;22.20;;;16.90;;
26484;SDS011;18083;50.560;7.262;2023-08-12T01:50:34;23.70;;;19.55;;
26484;SDS011;18083;50.560;7.262;2023-08-12T01:53:02;18.23;;;15.45;;
26484;SDS011;18083;50.560;7.262;2023-08-12T01:55:29;19.35;;;16.30;;
26484;SDS011;18083;50.560;7.262;2023-08-12T01:57:57;22.30;;;15.72;;
26484;SDS011;18083;50.560;7.262;2023-08-12T02:00:24;15.20;;;13.70;;
26484;SDS011;18083;50.560;7.262;2023-08-12T02:02:51;18.17;;;15.18;;
26484;SDS011;18083;50.560;7.262;2023-08-12T02:05:19;17.10;;;15.23;;
26484;SDS011;18083;50.560;7.262;2023-08-12T02:07:46;16.60;;;13.62;;
26484;SDS011;18083;50.560;7.262;2023-08-12T02:10:13;16.30;;;14.55;;
26484;SDS011;18083;50.560;7.262;2023-08-12T02:12:41;16.05;;;13.13;;
26484;SDS011;18083;50.560;7.262;2023-08-12T02:15:08;17.00;;;12.93;;
26484;SDS011;18083;50.560;7.262;2023-08-12T02:17:36;17.65;;;14.75;;
26484;SDS011;18083;50.560;7.262;2023-08-12T02:20:04;16.42;;;14.43;;
26484;SDS011;18083;50.560;7.262;2023-08-12T02:22:31;20.37;;;16.95;;
26484;SDS011;18083;50.560;7.262;2023-08-12T02:24:58;20.50;;;16.80;;
26484;SDS011;18083;50.560;7.262;2023-08-12T02:27:26;22.62;;;17.17;;
26484;SDS011;18083;50.560;7.262;2023-08-12T02:29:53;19.92;;;16.67;;
26484;SDS011;18083;50.560;7.262;2023-08-12T02:32:20;20.55;;;18.35;;
26484;SDS011;18083;50.560;7.262;2023-08-12T02:34:48;21.80;;;19.42;;
26484;SDS011;18083;50.560;7.262;2023-08-12T02:37:15;20.62;;;16.85;;
26484;SDS011;18083;50.560;7.262;2023-08-12T02:39:42;20.32;;;18.00;;
26484;SDS011;18083;50.560;7.262;2023-08-12T02:42:10;21.95;;;16.02;;
26484;SDS011;18083;50.560;7.262;2023-08-12T02:44:37;20.60;;;16.82;;
26484;SDS011;18083;50.560;7.262;2023-08-12T02:47:04;18.10;;;15.80;;
26484;SDS011;18083;50.560;7.262;2023-08-12T02:49:32;16.62;;;14.83;;
26484;SDS011;18083;50.560;7.262;2023-08-12T02:51:59;19.20;;;15.68;;
26484;SDS011;18083;50.560;7.262;2023-08-12T02:54:26;18.48;;;15.83;;
26484;SDS011;18083;50.560;7.262;2023-08-12T02:56:54;19.27;;;15.32;;
26484;SDS011;18083;50.560;7.262;2023-08-12T02:59:21;20.02;;;15.85;;
26484;SDS011;18083;50.560;7.262;2023-08-12T03:01:50;21.40;;;15.00;;
26484;SDS011;18083;50.560;7.262;2023-08-12T03:04:18;21.30;;;16.87;;
26484;SDS011;18083;50.560;7.262;2023-08-12T03:06:46;20.20;;;17.55;;
26484;SDS011;18083;50.560;7.262;2023-08-12T03:09:13;22.73;;;17.07;;
26484;SDS011;18083;50.560;7.262;2023-08-12T03:11:41;22.13;;;16.40;;
26484;SDS011;18083;50.560;7.262;2023-08-12T03:14:08;22.67;;;18.50;;
26484;SDS011;18083;50.560;7.262;2023-08-12T03:16:35;19.12;;;15.80;;
26484;SDS011;18083;50.560;7.262;2023-08-12T03:19:03;16.82;;;15.00;;
26484;SDS011;18083;50.560;7.262;2023-08-12T03:21:30;14.90;;;12.20;;
26484;SDS011;18083;50.560;7.262;2023-08-12T03:23:57;13.55;;;11.60;;
26484;SDS011;18083;50.560;7.262;2023-08-12T03:26:25;13.08;;;10.60;;
26484;SDS011;18083;50.560;7.262;2023-08-12T03:28:53;11.50;;;9.93;;
26484;SDS011;18083;50.560;7.262;2023-08-12T03:31:20;10.58;;;9.58;;
26484;SDS011;18083;50.560;7.262;2023-08-12T03:33:47;11.48;;;8.88;;
26484;SDS011;18083;50.560;7.262;2023-08-12T03:36:14;13.80;;;10.70;;
26484;SDS011;18083;50.560;7.262;2023-08-12T03:38:42;12.40;;;9.28;;
26484;SDS011;18083;50.560;7.262;2023-08-12T03:41:09;10.95;;;9.55;;
26484;SDS011;18083;50.560;7.262;2023-08-12T03:43:36;13.00;;;10.25;;
26484;SDS011;18083;50.560;7.262;2023-08-12T03:46:04;10.65;;;9.33;;
26484;SDS011;18083;50.560;7.262;2023-08-12T03:48:31;10.40;;;9.13;;
26484;SDS011;18083;50.560;7.262;2023-08-12T03:50:58;10.48;;;9.38;;
26484;SDS011;18083;50.560;7.262;2023-08-12T03:53:25;12.43;;;10.25;;
26484;SDS011;18083;50.560;7.262;2023-08-12T03:55:53;12.43;;;9.70;;
26484;SDS011;18083;50.560;7.262;2023-08-12T03:58:20;10.23;;;8.98;;
26484;SDS011;18083;50.560;7.262;2023-08-12T04:00:47;12.05;;;10.18;;
26484;SDS011;18083;50.560;7.262;2023-08-12T04:03:15;9.98;;;8.68;;
26484;SDS011;18083;50.560;7.262;2023-08-12T04:05:48;13.05;;;9.13;;
26484;SDS011;18083;50.560;7.262;2023-08-12T04:08:16;10.18;;;9.08;;
26484;SDS011;18083;50.560;7.262;2023-08-12T04:10:46;8.03;;;7.22;;
26484;SDS011;18083;50.560;7.262;2023-08-12T04:13:14;9.75;;;8.75;;
26484;SDS011;18083;50.560;7.262;2023-08-12T04:15:41;11.43;;;10.32;;
26484;SDS011;18083;50.560;7.262;2023-08-12T04:18:09;11.55;;;10.30;;
26484;SDS011;18083;50.560;7.262;2023-08-12T04:20:36;10.48;;;9.40;;
26484;SDS011;18083;50.560;7.262;2023-08-12T04:23:04;12.78;;;10.30;;
26484;SDS011;18083;50.560;7.262;2023-08-12T04:25:32;9.80;;;8.83;;
26484;SDS011;18083;50.560;7.262;2023-08-12T04:27:59;12.18;;;10.53;;
26484;SDS011;18083;50.560;7.262;2023-08-12T04:30:27;12.15;;;10.58;;
26484;SDS011;18083;50.560;7.262;2023-08-12T04:32:54;12.30;;;11.05;;
26484;SDS011;18083;50.560;7.262;2023-08-12T04:35:21;14.18;;;12.68;;
26484;SDS011;18083;50.560;7.262;2023-08-12T04:37:49;14.78;;;12.05;;
26484;SDS011;18083;50.560;7.262;2023-08-12T04:40:16;15.48;;;12.28;;
26484;SDS011;18083;50.560;7.262;2023-08-12T04:42:43;16.17;;;12.23;;
26484;SDS011;18083;50.560;7.262;2023-08-12T04:45:11;13.58;;;10.88;;
26484;SDS011;18083;50.560;7.262;2023-08-12T04:47:39;12.50;;;10.72;;
26484;SDS011;18083;50.560;7.262;2023-08-12T04:50:06;15.32;;;11.73;;
26484;SDS011;18083;50.560;7.262;2023-08-12T04:52:33;12.43;;;11.22;;
26484;SDS011;18083;50.560;7.262;2023-08-12T04:55:01;11.93;;;10.78;;
26484;SDS011;18083;50.560;7.262;2023-08-12T04:57:29;12.68;;;10.15;;
26484;SDS011;18083;50.560;7.262;2023-08-12T04:59:56;11.60;;;9.75;;
26484;SDS011;18083;50.560;7.262;2023-08-12T05:02:24;11.48;;;9.53;;
26484;SDS011;18083;50.560;7.262;2023-08-12T05:04:51;15.78;;;10.23;;
26484;SDS011;18083;50.560;7.262;2023-08-12T05:07:18;12.10;;;9.03;;
26484;SDS011;18083;50.560;7.262;2023-08-12T05:09:46;14.83;;;10.40;;
26484;SDS011;18083;50.560;7.262;2023-08-12T05:12:13;12.43;;;10.68;;
26484;SDS011;18083;50.560;7.262;2023-08-12T05:14:41;14.98;;;10.98;;
26484;SDS011;18083;50.560;7.262;2023-08-12T05:17:08;16.87;;;11.28;;
26484;SDS011;18083;50.560;7.262;2023-08-12T05:19:35;14.95;;;11.55;;
26484;SDS011;18083;50.560;7.262;2023-08-12T05:22:03;15.40;;;11.43;;
26484;SDS011;18083;50.560;7.262;2023-08-12T05:24:30;12.65;;;11.30;;
26484;SDS011;18083;50.560;7.262;2023-08-12T05:26:57;16.15;;;10.10;;
26484;SDS011;18083;50.560;7.262;2023-08-12T05:29:25;12.20;;;10.50;;
26484;SDS011;18083;50.560;7.262;2023-08-12T05:31:52;9.85;;;7.85;;
26484;SDS011;18083;50.560;7.262;2023-08-12T05:34:19;9.50;;;7.10;;
26484;SDS011;18083;50.560;7.262;2023-08-12T05:36:47;12.90;;;7.58;;
26484;SDS011;18083;50.560;7.262;2023-08-12T05:39:14;10.13;;;7.50;;
26484;SDS011;18083;50.560;7.262;2023-08-12T05:41:42;9.33;;;7.50;;
26484;SDS011;18083;50.560;7.262;2023-08-12T05:44:09;7.92;;;6.80;;
26484;SDS011;18083;50.560;7.262;2023-08-12T05:46:36;8.98;;;6.65;;
26484;SDS011;18083;50.560;7.262;2023-08-12T05:49:04;8.38;;;7.45;;
26484;SDS011;18083;50.560;7.262;2023-08-12T05:51:31;7.28;;;6.58;;
26484;SDS011;18083;50.560;7.262;2023-08-12T05:53:58;8.10;;;5.80;;
26484;SDS011;18083;50.560;7.262;2023-08-12T05:56:26;8.13;;;6.62;;
26484;SDS011;18083;50.560;7.262;2023-08-12T05:58:53;7.37;;;6.28;;
26484;SDS011;18083;50.560;7.262;2023-08-12T06:01:20;7.15;;;6.25;;
26484;SDS011;18083;50.560;7.262;2023-08-12T06:03:48;9.38;;;5.55;;
26484;SDS011;18083;50.560;7.262;2023-08-12T06:06:15;8.28;;;5.78;;
26484;SDS011;18083;50.560;7.262;2023-08-12T06:08:42;8.75;;;6.45;;
26484;SDS011;18083;50.560;7.262;2023-08-12T06:11:09;9.35;;;7.05;;
26484;SDS011;18083;50.560;7.262;2023-08-12T06:13:37;8.53;;;6.67;;
26484;SDS011;18083;50.560;7.262;2023-08-12T06:16:04;9.35;;;6.30;;
26484;SDS011;18083;50.560;7.262;2023-08-12T06:18:32;10.15;;;7.25;;
26484;SDS011;18083;50.560;7.262;2023-08-12T06:20:59;11.55;;;6.60;;
26484;SDS011;18083;50.560;7.262;2023-08-12T06:23:27;7.50;;;5.45;;
26484;SDS011;18083;50.560;7.262;2023-08-12T06:25:54;6.75;;;6.15;;
26484;SDS011;18083;50.560;7.262;2023-08-12T06:28:21;11.12;;;6.33;;
26484;SDS011;18083;50.560;7.262;2023-08-12T06:30:48;10.40;;;6.10;;
26484;SDS011;18083;50.560;7.262;2023-08-12T06:33:16;7.33;;;6.45;;
26484;SDS011;18083;50.560;7.262;2023-08-12T06:35:44;7.75;;;6.12;;
26484;SDS011;18083;50.560;7.262;2023-08-12T06:38:11;9.13;;;5.60;;
26484;SDS011;18083;50.560;7.262;2023-08-12T06:40:39;6.62;;;5.92;;
26484;SDS011;18083;50.560;7.262;2023-08-12T06:43:07;5.25;;;4.75;;
26484;SDS011;18083;50.560;7.262;2023-08-12T06:45:35;7.42;;;5.22;;
26484;SDS011;18083;50.560;7.262;2023-08-12T06:48:02;9.10;;;5.35;;
26484;SDS011;18083;50.560;7.262;2023-08-12T06:50:29;6.12;;;4.10;;
26484;SDS011;18083;50.560;7.262;2023-08-12T06:52:58;6.40;;;4.60;;
26484;SDS011;18083;50.560;7.262;2023-08-12T06:55:25;10.53;;;4.78;;
26484;SDS011;18083;50.560;7.262;2023-08-12T06:57:52;8.73;;;5.20;;
26484;SDS011;18083;50.560;7.262;2023-08-12T07:00:20;5.92;;;5.28;;
26484;SDS011;18083;50.560;7.262;2023-08-12T07:02:47;5.50;;;4.62;;
26484;SDS011;18083;50.560;7.262;2023-08-12T07:05:14;6.75;;;5.12;;
26484;SDS011;18083;50.560;7.262;2023-08-12T07:07:42;6.12;;;4.20;;
26484;SDS011;18083;50.560;7.262;2023-08-12T07:10:09;7.72;;;4.17;;
26484;SDS011;18083;50.560;7.262;2023-08-12T07:12:37;5.30;;;4.53;;
26484;SDS011;18083;50.560;7.262;2023-08-12T07:15:04;11.90;;;5.42;;
26484;SDS011;18083;50.560;7.262;2023-08-12T07:17:31;7.67;;;5.75;;
26484;SDS011;18083;50.560;7.262;2023-08-12T07:19:59;11.22;;;5.25;;
26484;SDS011;18083;50.560;7.262;2023-08-12T07:22:26;5.72;;;5.12;;
26484;SDS011;18083;50.560;7.262;2023-08-12T07:24:53;6.33;;;5.05;;
26484;SDS011;18083;50.560;7.262;2023-08-12T07:27:21;6.62;;;4.78;;
26484;SDS011;18083;50.560;7.262;2023-08-12T07:29:49;6.28;;;5.08;;
26484;SDS011;18083;50.560;7.262;2023-08-12T07:32:16;5.45;;;4.95;;
26484;SDS011;18083;50.560;7.262;2023-08-12T07:34:45;5.87;;;5.25;;
26484;SDS011;18083;50.560;7.262;2023-08-12T07:37:12;6.58;;;5.45;;
26484;SDS011;18083;50.560;7.262;2023-08-12T07:39:39;5.60;;;5.10;;
26484;SDS011;18083;50.560;7.262;2023-08-12T07:42:07;6.55;;;5.95;;
26484;SDS011;18083;50.560;7.262;2023-08-12T07:44:34;7.45;;;5.00;;
26484;SDS011;18083;50.560;7.262;2023-08-12T07:47:02;7.65;;;5.03;;
26484;SDS011;18083;50.560;7.262;2023-08-12T07:49:29;8.00;;;6.50;;
26484;SDS011;18083;50.560;7.262;2023-08-12T07:51:56;7.60;;;5.67;;
26484;SDS011;18083;50.560;7.262;2023-08-12T07:54:24;7.00;;;6.28;;
26484;SDS011;18083;50.560;7.262;2023-08-12T07:56:51;5.92;;;5.33;;
26484;SDS011;18083;50.560;7.262;2023-08-12T07:59:20;8.93;;;6.08;;
26484;SDS011;18083;50.560;7.262;2023-08-12T08:01:47;8.35;;;6.00;;
26484;SDS011;18083;50.560;7.262;2023-08-12T08:04:14;12.03;;;6.42;;
26484;SDS011;18083;50.560;7.262;2023-08-12T08:06:42;6.10;;;5.22;;
26484;SDS011;18083;50.560;7.262;2023-08-12T08:09:09;6.92;;;5.37;;
26484;SDS011;18083;50.560;7.262;2023-08-12T08:11:37;5.25;;;4.45;;
26484;SDS011;18083;50.560;7.262;2023-08-12T08:14:04;6.58;;;5.05;;
26484;SDS011;18083;50.560;7.262;2023-08-12T08:16:31;5.65;;;4.45;;
26484;SDS011;18083;50.560;7.262;2023-08-12T08:18:59;4.90;;;4.08;;
26484;SDS011;18083;50.560;7.262;2023-08-12T08:21:26;6.12;;;4.05;;
26484;SDS011;18083;50.560;7.262;2023-08-12T08:23:53;5.28;;;4.80;;
26484;SDS011;18083;50.560;7.262;2023-08-12T08:26:21;4.00;;;3.70;;
26484;SDS011;18083;50.560;7.262;2023-08-12T08:28:48;6.55;;;4.30;;
26484;SDS011;18083;50.560;7.262;2023-08-12T08:31:15;4.50;;;4.10;;
26484;SDS011;18083;50.560;7.262;2023-08-12T08:33:43;7.33;;;4.62;;
26484;SDS011;18083;50.560;7.262;2023-08-12T08:36:10;7.37;;;4.10;;
26484;SDS011;18083;50.560;7.262;2023-08-12T08:38:37;5.15;;;3.72;;
26484;SDS011;18083;50.560;7.262;2023-08-12T08:41:05;5.90;;;3.52;;
26484;SDS011;18083;50.560;7.262;2023-08-12T08:43:33;4.90;;;4.10;;
26484;SDS011;18083;50.560;7.262;2023-08-12T08:46:01;5.50;;;3.87;;
26484;SDS011;18083;50.560;7.262;2023-08-12T08:48:28;4.28;;;3.85;;
26484;SDS011;18083;50.560;7.262;2023-08-12T08:50:56;5.83;;;3.22;;
26484;SDS011;18083;50.560;7.262;2023-08-12T08:53:23;4.83;;;3.70;;
26484;SDS011;18083;50.560;7.262;2023-08-12T08:55:51;5.25;;;3.95;;
26484;SDS011;18083;50.560;7.262;2023-08-12T08:58:20;5.80;;;3.17;;
26484;SDS011;18083;50.560;7.262;2023-08-12T09:00:47;4.95;;;4.10;;
26484;SDS011;18083;50.560;7.262;2023-08-12T09:03:14;8.20;;;4.75;;
26484;SDS011;18083;50.560;7.262;2023-08-12T09:05:42;7.80;;;3.98;;
26484;SDS011;18083;50.560;7.262;2023-08-12T09:08:10;9.43;;;3.60;;
26484;SDS011;18083;50.560;7.262;2023-08-12T09:10:39;3.72;;;3.42;;
26484;SDS011;18083;50.560;7.262;2023-08-12T09:13:06;7.28;;;3.30;;
26484;SDS011;18083;50.560;7.262;2023-08-12T09:15:35;3.98;;;3.00;;
26484;SDS011;18083;50.560;7.262;2023-08-12T09:18:04;4.40;;;3.33;;
26484;SDS011;18083;50.560;7.262;2023-08-12T09:20:31;4.50;;;3.35;;
26484;SDS011;18083;50.560;7.262;2023-08-12T09:22:59;6.65;;;2.87;;
26484;SDS011;18083;50.560;7.262;2023-08-12T09:25:27;4.65;;;2.80;;
26484;SDS011;18083;50.560;7.262;2023-08-12T09:27:55;3.30;;;2.80;;
26484;SDS011;18083;50.560;7.262;2023-08-12T09:30:24;3.30;;;2.90;;
26484;SDS011;18083;50.560;7.262;2023-08-12T09:32:58;3.22;;;2.95;;
26484;SDS011;18083;50.560;7.262;2023-08-12T09:35:23;4.35;;;3.33;;
26484;SDS011;18083;50.560;7.262;2023-08-12T09:37:50;4.33;;;3.62;;
26484;SDS011;18083;50.560;7.262;2023-08-12T09:40:18;3.85;;;3.47;;
26484;SDS011;18083;50.560;7.262;2023-08-12T09:42:45;3.50;;;3.20;;
26484;SDS011;18083;50.560;7.262;2023-08-12T09:45:13;3.65;;;3.35;;
26484;SDS011;18083;50.560;7.262;2023-08-12T09:47:41;3.15;;;2.85;;
26484;SDS011;18083;50.560;7.262;2023-08-12T09:50:09;7.72;;;3.40;;
26484;SDS011;18083;50.560;7.262;2023-08-12T09:52:36;4.50;;;3.47;;
26484;SDS011;18083;50.560;7.262;2023-08-12T09:55:04;4.97;;;3.50;;
26484;SDS011;18083;50.560;7.262;2023-08-12T09:57:33;3.22;;;2.92;;
26484;SDS011;18083;50.560;7.262;2023-08-12T10:00:01;4.08;;;3.12;;
26484;SDS011;18083;50.560;7.262;2023-08-12T10:02:29;4.35;;;3.12;;
26484;SDS011;18083;50.560;7.262;2023-08-12T10:04:57;3.58;;;2.80;;
26484;SDS011;18083;50.560;7.262;2023-08-12T10:07:25;5.12;;;3.08;;
26484;SDS011;18083;50.560;7.262;2023-08-12T10:09:52;4.42;;;3.10;;
26484;SDS011;18083;50.560;7.262;2023-08-12T10:12:21;5.85;;;3.12;;
26484;SDS011;18083;50.560;7.262;2023-08-12T10:14:48;5.03;;;3.05;;
26484;SDS011;18083;50.560;7.262;2023-08-12T10:17:16;5.72;;;3.37;;
26484;SDS011;18083;50.560;7.262;2023-08-12T10:19:43;4.17;;;2.87;;
26484;SDS011;18083;50.560;7.262;2023-08-12T10:22:11;3.00;;;2.55;;
26484;SDS011;18083;50.560;7.262;2023-08-12T10:24:38;6.37;;;3.02;;
26484;SDS011;18083;50.560;7.262;2023-08-12T10:27:06;5.08;;;3.37;;
26484;SDS011;18083;50.560;7.262;2023-08-12T10:29:34;3.92;;;3.52;;
26484;SDS011;18083;50.560;7.262;2023-08-12T10:32:02;3.00;;;2.70;;
26484;SDS011;18083;50.560;7.262;2023-08-12T10:34:29;6.22;;;3.17;;
26484;SDS011;18083;50.560;7.262;2023-08-12T10:36:57;4.85;;;3.62;;
26484;SDS011;18083;50.560;7.262;2023-08-12T10:39:25;4.00;;;3.45;;
26484;SDS011;18083;50.560;7.262;2023-08-12T10:41:57;5.17;;;3.80;;
26484;SDS011;18083;50.560;7.262;2023-08-12T10:44:22;4.67;;;4.08;;
26484;SDS011;18083;50.560;7.262;2023-08-12T10:46:51;4.22;;;3.83;;
26484;SDS011;18083;50.560;7.262;2023-08-12T10:49:19;4.12;;;3.25;;
26484;SDS011;18083;50.560;7.262;2023-08-12T10:51:51;6.33;;;3.80;;
26484;SDS011;18083;50.560;7.262;2023-08-12T10:59:47;3.50;;;3.20;;
26484;SDS011;18083;50.560;7.262;2023-08-12T11:02:33;2.65;;;2.15;;
26484;SDS011;18083;50.560;7.262;2023-08-12T11:05:04;5.10;;;3.10;;
26484;SDS011;18083;50.560;7.262;2023-08-12T11:07:42;2.30;;;2.12;;
26484;SDS011;18083;50.560;7.262;2023-08-12T11:10:16;2.90;;;2.70;;
26484;SDS011;18083;50.560;7.262;2023-08-12T11:18:04;2.02;;;1.80;;
26484;SDS011;18083;50.560;7.262;2023-08-12T11:20:29;4.50;;;2.30;;
26484;SDS011;18083;50.560;7.262;2023-08-12T11:22:56;2.58;;;2.33;;
26484;SDS011;18083;50.560;7.262;2023-08-12T11:25:32;2.12;;;1.95;;
26484;SDS011;18083;50.560;7.262;2023-08-12T11:27:55;3.27;;;2.60;;
26484;SDS011;18083;50.560;7.262;2023-08-12T11:30:23;3.65;;;1.82;;
26484;SDS011;18083;50.560;7.262;2023-08-12T11:32:55;2.60;;;2.37;;
26484;SDS011;18083;50.560;7.262;2023-08-12T11:35:20;2.33;;;2.02;;
26484;SDS011;18083;50.560;7.262;2023-08-12T11:37:48;2.15;;;1.98;;
26484;SDS011;18083;50.560;7.262;2023-08-12T11:40:16;1.70;;;1.60;;
26484;SDS011;18083;50.560;7.262;2023-08-12T11:42:45;2.62;;;1.45;;
26484;SDS011;18083;50.560;7.262;2023-08-12T11:45:16;2.30;;;1.57;;
26484;SDS011;18083;50.560;7.262;2023-08-12T11:47:44;2.58;;;1.80;;
26484;SDS011;18083;50.560;7.262;2023-08-12T11:50:13;2.70;;;2.05;;
26484;SDS011;18083;50.560;7.262;2023-08-12T11:52:40;2.55;;;1.57;;
26484;SDS011;18083;50.560;7.262;2023-08-12T11:55:08;4.75;;;1.47;;
26484;SDS011;18083;50.560;7.262;2023-08-12T11:57:35;2.65;;;1.85;;
26484;SDS011;18083;50.560;7.262;2023-08-12T12:00:04;3.33;;;1.37;;
26484;SDS011;18083;50.560;7.262;2023-08-12T12:02:35;2.35;;;1.92;;
26484;SDS011;18083;50.560;7.262;2023-08-12T12:05:05;2.60;;;1.47;;
26484;SDS011;18083;50.560;7.262;2023-08-12T12:07:31;3.42;;;1.70;;
26484;SDS011;18083;50.560;7.262;2023-08-12T12:09:58;1.82;;;1.70;;
26484;SDS011;18083;50.560;7.262;2023-08-12T12:12:25;2.08;;;1.85;;
26484;SDS011;18083;50.560;7.262;2023-08-12T12:14:53;1.42;;;1.25;;
26484;SDS011;18083;50.560;7.262;2023-08-12T12:17:21;2.67;;;1.70;;
26484;SDS011;18083;50.560;7.262;2023-08-12T12:19:55;2.70;;;1.92;;
26484;SDS011;18083;50.560;7.262;2023-08-12T12:22:28;1.77;;;1.42;;
26484;SDS011;18083;50.560;7.262;2023-08-12T12:24:59;2.50;;;2.05;;
26484;SDS011;18083;50.560;7.262;2023-08-12T12:27:27;3.85;;;1.80;;
26484;SDS011;18083;50.560;7.262;2023-08-12T12:29:54;1.82;;;1.57;;
26484;SDS011;18083;50.560;7.262;2023-08-12T12:32:22;1.60;;;1.50;;
26484;SDS011;18083;50.560;7.262;2023-08-12T12:34:49;2.70;;;1.75;;
26484;SDS011;18083;50.560;7.262;2023-08-12T12:37:17;1.75;;;1.62;;
26484;SDS011;18083;50.560;7.262;2023-08-12T12:39:44;1.77;;;1.50;;
26484;SDS011;18083;50.560;7.262;2023-08-12T12:42:11;1.92;;;1.60;;
26484;SDS011;18083;50.560;7.262;2023-08-12T12:44:39;4.78;;;2.00;;
26484;SDS011;18083;50.560;7.262;2023-08-12T12:47:07;1.95;;;1.80;;
26484;SDS011;18083;50.560;7.262;2023-08-12T12:49:36;2.10;;;1.42;;
26484;SDS011;18083;50.560;7.262;2023-08-12T12:52:03;3.15;;;1.82;;
26484;SDS011;18083;50.560;7.262;2023-08-12T12:54:30;2.20;;;1.40;;
26484;SDS011;18083;50.560;7.262;2023-08-12T12:56:58;2.87;;;1.50;;
26484;SDS011;18083;50.560;7.262;2023-08-12T12:59:25;1.37;;;1.27;;
26484;SDS011;18083;50.560;7.262;2023-08-12T13:01:52;2.27;;;1.35;;
26484;SDS011;18083;50.560;7.262;2023-08-12T13:04:20;3.65;;;2.00;;
26484;SDS011;18083;50.560;7.262;2023-08-12T13:06:47;4.12;;;1.40;;
26484;SDS011;18083;50.560;7.262;2023-08-12T13:09:14;2.05;;;1.45;;
26484;SDS011;18083;50.560;7.262;2023-08-12T13:11:42;1.55;;;1.45;;
26484;SDS011;18083;50.560;7.262;2023-08-12T13:14:09;3.12;;;1.55;;
26484;SDS011;18083;50.560;7.262;2023-08-12T13:16:36;1.65;;;1.17;;
26484;SDS011;18083;50.560;7.262;2023-08-12T13:19:04;6.08;;;2.45;;
26484;SDS011;18083;50.560;7.262;2023-08-12T13:21:31;1.10;;;0.98;;
26484;SDS011;18083;50.560;7.262;2023-08-12T13:23:59;1.42;;;1.32;;
26484;SDS011;18083;50.560;7.262;2023-08-12T13:26:27;4.05;;;1.37;;
26484;SDS011;18083;50.560;7.262;2023-08-12T13:28:55;1.27;;;1.20;;
26484;SDS011;18083;50.560;7.262;2023-08-12T13:31:22;1.52;;;1.15;;
26484;SDS011;18083;50.560;7.262;2023-08-12T13:33:49;1.57;;;1.47;;
26484;SDS011;18083;50.560;7.262;2023-08-12T13:36:17;2.58;;;1.10;;
26484;SDS011;18083;50.560;7.262;2023-08-12T13:38:44;1.42;;;1.17;;
26484;SDS011;18083;50.560;7.262;2023-08-12T13:41:11;4.65;;;1.30;;
26484;SDS011;18083;50.560;7.262;2023-08-12T13:43:39;1.60;;;1.45;;
26484;SDS011;18083;50.560;7.262;2023-08-12T13:46:06;1.22;;;1.07;;
26484;SDS011;18083;50.560;7.262;2023-08-12T13:48:33;1.15;;;1.05;;
26484;SDS011;18083;50.560;7.262;2023-08-12T13:51:00;1.35;;;0.90;;
26484;SDS011;18083;50.560;7.262;2023-08-12T13:53:29;0.90;;;0.90;;
26484;SDS011;18083;50.560;7.262;2023-08-12T13:55:56;2.27;;;0.90;;
26484;SDS011;18083;50.560;7.262;2023-08-12T13:58:24;1.55;;;1.10;;
26484;SDS011;18083;50.560;7.262;2023-08-12T14:00:51;1.55;;;1.10;;
26484;SDS011;18083;50.560;7.262;2023-08-12T14:03:18;1.05;;;0.98;;
26484;SDS011;18083;50.560;7.262;2023-08-12T14:05:46;1.10;;;1.00;;
26484;SDS011;18083;50.560;7.262;2023-08-12T14:08:13;1.32;;;1.00;;
26484;SDS011;18083;50.560;7.262;2023-08-12T14:10:40;1.92;;;0.85;;
26484;SDS011;18083;50.560;7.262;2023-08-12T14:13:07;1.32;;;1.17;;
26484;SDS011;18083;50.560;7.262;2023-08-12T14:15:35;2.02;;;1.10;;
26484;SDS011;18083;50.560;7.262;2023-08-12T14:18:02;0.70;;;0.70;;
26484;SDS011;18083;50.560;7.262;2023-08-12T14:20:30;1.40;;;1.30;;
26484;SDS011;18083;50.560;7.262;2023-08-12T14:22:57;1.07;;;0.90;;
26484;SDS011;18083;50.560;7.262;2023-08-12T14:25:25;1.40;;;1.00;;
26484;SDS011;18083;50.560;7.262;2023-08-12T14:27:52;1.00;;;0.90;;
26484;SDS011;18083;50.560;7.262;2023-08-12T14:30:22;1.70;;;0.90;;
26484;SDS011;18083;50.560;7.262;2023-08-12T14:32:49;0.80;;;0.80;;
26484;SDS011;18083;50.560;7.262;2023-08-12T14:35:16;1.75;;;0.98;;
26484;SDS011;18083;50.560;7.262;2023-08-12T14:37:43;1.47;;;0.90;;
26484;SDS011;18083;50.560;7.262;2023-08-12T14:40:10;1.52;;;1.10;;
26484;SDS011;18083;50.560;7.262;2023-08-12T14:42:38;1.02;;;0.90;;
26484;SDS011;18083;50.560;7.262;2023-08-12T14:45:05;1.10;;;1.00;;
26484;SDS011;18083;50.560;7.262;2023-08-12T14:47:33;0.80;;;0.75;;
26484;SDS011;18083;50.560;7.262;2023-08-12T14:50:00;1.20;;;0.80;;
26484;SDS011;18083;50.560;7.262;2023-08-12T14:52:28;0.95;;;0.95;;
26484;SDS011;18083;50.560;7.262;2023-08-12T14:54:55;0.80;;;0.80;;
26484;SDS011;18083;50.560;7.262;2023-08-12T14:57:22;1.12;;;1.02;;